createdAt,value
2023-03-18T00:03:03.128Z,95360.56
2023-03-18T00:08:06.529Z,95357.44
2023-03-18T00:13:08.086Z,95357.03
2023-03-18T00:18:09.729Z,95373.03
2023-03-18T00:23:11.478Z,95366.78
2023-03-18T00:28:13.627Z,95372.66
2023-03-18T00:33:16.337Z,95374.25
2023-03-18T00:38:21.873Z,95380.09
2023-03-18T00:43:29.382Z,95384.00
2023-03-18T00:48:31.434Z,95385.16
2023-03-18T00:53:32.949Z,95386.75
2023-03-18T00:58:36.902Z,95393.00
2023-03-18T01:03:44.319Z,95392.22
2023-03-18T01:08:45.868Z,95378.63
2023-03-18T01:13:47.911Z,95386.81
2023-03-18T01:18:49.639Z,95386.44
2023-03-18T01:23:51.328Z,95398.97
2023-03-18T01:28:53.178Z,95400.16
2023-03-18T01:33:56.068Z,95392.78
2023-03-18T01:39:00.670Z,95390.09
2023-03-18T01:44:04.254Z,95397.53
2023-03-18T01:49:15.558Z,95395.97
2023-03-18T01:54:18.798Z,95394.84
2023-03-18T01:59:24.044Z,95401.06
2023-03-18T02:04:32.608Z,95394.84
2023-03-18T02:09:34.632Z,95398.38
2023-03-18T02:14:39.438Z,95401.88
2023-03-18T02:19:52.835Z,95407.34
2023-03-18T02:25:13.487Z,95419.84
2023-03-18T02:30:27.700Z,95415.94
2023-03-18T02:35:32.217Z,95421.38
2023-03-18T02:40:38.807Z,95424.09
2023-03-18T02:46:11.316Z,95425.28
2023-03-18T02:51:14.776Z,95419.06
2023-03-18T02:56:16.868Z,95424.91
2023-03-18T03:01:20.153Z,95414.00
2023-03-18T03:06:22.086Z,95423.72
2023-03-18T03:11:24.369Z,95429.97
2023-03-18T03:16:29.612Z,95433.88
2023-03-18T03:21:34.084Z,95450.59
2023-03-18T03:26:36.055Z,95448.66
2023-03-18T03:31:37.632Z,95444.38
2023-03-18T03:36:40.856Z,95459.94
2023-03-18T03:41:42.637Z,95459.50
2023-03-18T03:46:44.536Z,95458.72
2023-03-18T03:51:46.418Z,95455.97
2023-03-18T03:56:48.705Z,95455.97
2023-03-18T04:01:51.076Z,95459.47
2023-03-18T04:06:52.752Z,95454.78
2023-03-18T04:11:54.815Z,95461.78
2023-03-18T04:16:58.152Z,95466.88
2023-03-18T04:22:01.241Z,95461.03
2023-03-18T04:27:04.658Z,95468.81
2023-03-18T04:32:06.752Z,95472.31
2023-03-18T04:37:10.427Z,95472.69
2023-03-18T04:42:14.177Z,95472.28
2023-03-18T04:47:16.411Z,95473.84
2023-03-18T04:52:20.204Z,95487.44
2023-03-18T04:57:22.169Z,95483.19
2023-03-18T05:02:28.266Z,95474.25
2023-03-18T05:07:30.156Z,95481.59
2023-03-18T05:12:38.259Z,95480.06
2023-03-18T05:17:41.863Z,95471.50
2023-03-18T05:22:43.822Z,95476.16
2023-03-18T05:27:51.746Z,95472.25
2023-03-18T05:33:03.486Z,95477.31
2023-03-18T05:38:16.406Z,95478.47
2023-03-18T05:43:18.302Z,95478.84
2023-03-18T05:48:27.074Z,95473.38
2023-03-18T05:53:33.670Z,95472.63
2023-03-18T05:58:45.871Z,95481.56
2023-03-18T06:03:57.195Z,95494.03
2023-03-18T06:09:00.787Z,95496.75
2023-03-18T06:14:07.248Z,95510.38
2023-03-18T06:19:10.821Z,95504.94
2023-03-18T06:24:14.563Z,95512.34
2023-03-18T06:29:18.222Z,95508.84
2023-03-18T06:34:20.461Z,95520.53
2023-03-18T06:39:22.239Z,95516.25
2023-03-18T06:44:25.301Z,95525.59
2023-03-18T06:49:30.850Z,95532.63
2023-03-18T06:54:41.763Z,95540.81
2023-03-18T06:59:43.636Z,95547.84
2023-03-18T07:04:45.412Z,95546.69
2023-03-18T07:09:47.696Z,95543.97
2023-03-18T07:14:49.351Z,95548.31
2023-03-18T07:19:53.374Z,95559.59
2023-03-18T07:24:55.513Z,95558.44
2023-03-18T07:29:57.129Z,95559.25
2023-03-18T07:34:59.213Z,95558.88
2023-03-18T07:40:01.371Z,95555.34
2023-03-18T07:45:03.105Z,95566.69
2023-03-18T07:50:05.723Z,95560.84
2023-03-18T07:55:09.136Z,95576.81
2023-03-18T08:00:12.500Z,95567.84
2023-03-18T08:05:19.125Z,95572.53
2023-03-18T08:10:20.883Z,95570.59
2023-03-18T08:15:23.259Z,95568.66
2023-03-18T08:20:24.882Z,95579.16
2023-03-18T08:25:26.670Z,95586.94
2023-03-18T08:30:28.891Z,95586.94
2023-03-18T08:35:30.918Z,95581.06
2023-03-18T08:40:34.760Z,95591.59
2023-03-18T08:45:36.799Z,95589.59
2023-03-18T08:50:38.723Z,95584.88
2023-03-18T08:55:40.739Z,95588.78
2023-03-18T09:00:43.028Z,95589.16
2023-03-18T09:05:49.310Z,95584.84
2023-03-18T09:10:53.642Z,95581.28
2023-03-18T09:15:55.319Z,95592.16
2023-03-18T09:20:57.609Z,95594.44
2023-03-18T09:25:59.776Z,95599.44
2023-03-18T09:31:01.711Z,95592.38
2023-03-18T09:36:04.514Z,95582.16
2023-03-18T09:41:41.287Z,95589.09
2023-03-18T09:47:14.688Z,95590.59
2023-03-18T09:52:22.610Z,95590.88
2023-03-18T09:57:30.450Z,95585.31
2023-03-18T10:02:40.451Z,95594.63
2023-03-18T10:07:44.627Z,95590.19
2023-03-18T10:12:50.705Z,95583.41
2023-03-18T10:18:22.386Z,95584.06
2023-03-18T10:23:37.597Z,95581.56
2023-03-18T10:28:42.566Z,95586.91
2023-03-18T10:33:56.209Z,95588.28
2023-03-18T10:38:59.776Z,95570.06
2023-03-18T10:44:32.575Z,95575.72
2023-03-18T10:49:41.072Z,95579.00
2023-03-18T10:54:53.201Z,95563.91
2023-03-18T10:59:55.286Z,95562.13
2023-03-18T11:05:04.354Z,95551.63
2023-03-18T11:10:23.876Z,95554.94
2023-03-18T11:15:26.448Z,95552.28
2023-03-18T11:20:44.086Z,95547.66
2023-03-18T11:25:48.574Z,95542.72
2023-03-18T11:30:54.883Z,95536.16
2023-03-18T11:36:09.724Z,95536.72
2023-03-18T11:41:17.418Z,95526.25
2023-03-18T11:46:21.447Z,95525.56
2023-03-18T11:51:51.262Z,95523.19
2023-03-18T11:57:16.426Z,95516.84
2023-03-18T12:02:41.165Z,95503.03
2023-03-18T12:07:56.840Z,95502.59
2023-03-18T12:13:29.802Z,95499.06
2023-03-18T12:18:44.491Z,95499.03
2023-03-18T12:24:09.006Z,95485.22
2023-03-18T12:29:39.419Z,95480.00
2023-03-18T12:35:16.062Z,95471.78
2023-03-18T12:40:54.219Z,95463.41
2023-03-18T12:46:03.605Z,95460.38
2023-03-18T12:51:10.621Z,95456.50
2023-03-18T12:56:43.318Z,95452.53
2023-03-18T13:01:49.398Z,95455.75
2023-03-18T13:07:15.990Z,95458.94
2023-03-18T13:12:23.688Z,95461.03
2023-03-18T13:17:36.196Z,95463.03
2023-03-18T13:22:44.025Z,95466.47
2023-03-18T13:27:53.965Z,95454.72
2023-03-18T13:33:13.377Z,95459.91
2023-03-18T13:38:20.635Z,95457.88
2023-03-18T13:43:24.632Z,95454.75
2023-03-18T13:48:33.731Z,95452.41
2023-03-18T13:53:43.922Z,95446.94
2023-03-18T13:58:52.525Z,95446.88
2023-03-18T14:03:57.118Z,95437.00
2023-03-18T14:08:58.736Z,95420.78
2023-03-18T14:14:05.970Z,95417.94
2023-03-18T14:19:32.617Z,95421.50
2023-03-18T14:24:35.009Z,95421.13
2023-03-18T14:29:36.599Z,95428.88
2023-03-18T14:34:47.937Z,95428.00
2023-03-18T14:39:53.002Z,95429.00
2023-03-18T14:44:59.285Z,95423.81
2023-03-18T14:50:04.428Z,95418.28
2023-03-18T14:55:14.344Z,95418.47
2023-03-18T15:00:18.028Z,95403.56
2023-03-18T15:05:22.750Z,95407.25
2023-03-18T15:10:27.903Z,95403.41
2023-03-18T15:15:29.520Z,95403.41
2023-03-18T15:20:36.183Z,95402.16
2023-03-18T15:25:41.249Z,95405.75
2023-03-18T15:31:00.337Z,95399.13
2023-03-18T15:36:16.464Z,95406.69
2023-03-18T15:41:21.589Z,95409.28
2023-03-18T15:46:27.818Z,95400.03
2023-03-18T15:51:40.416Z,95407.44
2023-03-18T15:56:48.695Z,95400.03
2023-03-18T16:01:50.116Z,95400.06
2023-03-18T16:06:53.669Z,95400.69
2023-03-18T16:12:00.414Z,95404.78
2023-03-18T16:17:02.570Z,95408.81
2023-03-18T16:22:04.250Z,95426.16
2023-03-18T16:27:06.073Z,95417.81
2023-03-18T16:32:11.855Z,95421.28
2023-03-18T16:37:23.936Z,95426.75
2023-03-18T16:42:25.456Z,95427.09
2023-03-18T16:47:27.662Z,95431.66
2023-03-18T16:52:29.325Z,95435.84
2023-03-18T16:57:31.583Z,95435.59
2023-03-18T17:02:34.780Z,95440.06
2023-03-18T17:07:36.981Z,95437.00
2023-03-18T17:12:39.867Z,95438.94
2023-03-18T17:17:41.933Z,95443.72
2023-03-18T17:22:43.864Z,95437.81
2023-03-18T17:27:55.287Z,95441.81
2023-03-18T17:32:56.835Z,95439.06
2023-03-18T17:37:59.139Z,95441.81
2023-03-18T17:43:01.241Z,95440.59
2023-03-18T17:48:23.818Z,95441.06
2023-03-18T17:53:27.309Z,95451.97
2023-03-18T17:58:31.194Z,95448.31
2023-03-18T18:03:34.932Z,95451.31
2023-03-18T18:08:37.230Z,95455.47
2023-03-18T18:13:38.803Z,95459.66
2023-03-18T18:18:41.570Z,95450.47
2023-03-18T18:23:45.418Z,95451.91
2023-03-18T18:28:49.525Z,95452.53
2023-03-18T18:33:51.598Z,95447.97
2023-03-18T18:38:53.158Z,95461.53
2023-03-18T18:43:55.557Z,95460.16
2023-03-18T18:48:57.154Z,95457.16
2023-03-18T18:53:59.898Z,95450.28
2023-03-18T18:59:05.245Z,95463.50
2023-03-18T19:04:14.536Z,95452.66
2023-03-18T19:09:21.952Z,95443.03
2023-03-18T19:14:26.578Z,95441.69
2023-03-18T19:19:30.911Z,95443.50
2023-03-18T19:24:36.701Z,95439.03
2023-03-18T19:29:38.459Z,95438.06
2023-03-18T19:34:39.962Z,95442.97
2023-03-18T19:39:42.712Z,95440.03
2023-03-18T19:44:45.273Z,95433.16
2023-03-18T19:49:46.964Z,95438.03
2023-03-18T19:54:49.934Z,95452.41
2023-03-18T19:59:54.254Z,95451.44
2023-03-18T20:05:01.047Z,95458.28
2023-03-18T20:10:02.616Z,95463.59
2023-03-18T20:15:05.799Z,95462.22
2023-03-18T20:20:13.136Z,95467.50
2023-03-18T20:25:24.278Z,95466.50
2023-03-18T20:30:28.202Z,95475.38
2023-03-18T20:35:33.027Z,95475.56
2023-03-18T20:40:34.898Z,95476.97
2023-03-18T20:45:36.448Z,95477.94
2023-03-18T20:50:38.602Z,95467.88
2023-03-18T20:55:41.335Z,95475.03
2023-03-18T21:00:43.903Z,95486.09
2023-03-18T21:05:46.352Z,95482.22
2023-03-18T21:10:48.100Z,95480.72
2023-03-18T21:15:49.609Z,95473.34
2023-03-18T21:20:51.283Z,95471.44
2023-03-18T21:25:53.410Z,95476.56
2023-03-18T21:30:58.314Z,95484.44
2023-03-18T21:36:01.120Z,95484.13
2023-03-18T21:41:03.071Z,95475.94
2023-03-18T21:46:07.466Z,95479.16
2023-03-18T21:51:37.226Z,95483.59
2023-03-18T21:56:39.953Z,95470.34
2023-03-18T22:01:41.645Z,95468.47
2023-03-18T22:06:43.220Z,95469.03
2023-03-18T22:11:44.793Z,95467.53
2023-03-18T22:16:46.493Z,95471.03
2023-03-18T22:21:48.205Z,95469.91
2023-03-18T22:26:49.724Z,95484.03
2023-03-18T22:31:51.430Z,95486.03
2023-03-18T22:36:53.010Z,95485.28
2023-03-18T22:41:54.560Z,95488.50
2023-03-18T22:46:56.180Z,95487.81
2023-03-18T22:51:57.781Z,95484.78
2023-03-18T22:56:59.411Z,95489.94
2023-03-18T23:02:00.956Z,95489.97
2023-03-18T23:07:02.610Z,95489.69
2023-03-18T23:12:04.248Z,95492.03
2023-03-18T23:17:06.308Z,95489.81
2023-03-18T23:22:11.714Z,95503.97
2023-03-18T23:27:13.249Z,95501.69
2023-03-18T23:32:16.409Z,95497.50
2023-03-18T23:37:18.408Z,95508.53
2023-03-18T23:42:20.866Z,95506.25
2023-03-18T23:47:22.393Z,95503.53
2023-03-18T23:52:24.025Z,95511.03
2023-03-18T23:57:25.610Z,95497.34
